createdAt,value
2022-11-04T00:02:50.579Z,949.37
2022-11-04T00:08:22.263Z,949.49
2022-11-04T00:13:53.820Z,949.59
2022-11-04T00:19:25.934Z,949.66
2022-11-04T00:24:57.384Z,949.72
2022-11-04T00:30:28.887Z,949.82
2022-11-04T00:36:00.643Z,949.92
2022-11-04T00:41:32.333Z,949.96
2022-11-04T00:47:04.135Z,949.98
2022-11-04T00:52:35.960Z,950.04
2022-11-04T00:58:07.737Z,950.08
2022-11-04T01:03:39.724Z,950.12
2022-11-04T01:09:11.249Z,950.23
2022-11-04T01:14:42.893Z,950.35
2022-11-04T01:20:14.506Z,950.43
2022-11-04T01:25:46.202Z,950.51
2022-11-04T01:31:17.965Z,950.55
2022-11-04T01:36:49.651Z,950.59
2022-11-04T01:42:21.041Z,950.61
2022-11-04T01:47:52.592Z,950.59
2022-11-04T01:53:24.178Z,950.51
2022-11-04T01:58:55.766Z,950.45
2022-11-04T02:04:27.418Z,950.41
2022-11-04T02:09:59.155Z,950.37
2022-11-04T02:15:31.075Z,950.35
2022-11-04T02:21:02.727Z,950.35
2022-11-04T02:26:34.356Z,950.35
2022-11-04T02:32:05.835Z,950.37
2022-11-04T02:37:37.524Z,950.37
2022-11-04T02:43:09.351Z,950.39
2022-11-04T02:48:40.673Z,950.45
2022-11-04T02:54:12.394Z,950.47
2022-11-04T02:59:44.006Z,950.51
2022-11-04T03:05:15.503Z,950.51
2022-11-04T03:10:46.947Z,950.49
2022-11-04T03:16:18.176Z,950.41
2022-11-04T03:21:49.633Z,950.37
2022-11-04T03:27:20.806Z,950.33
2022-11-04T03:32:58.291Z,950.29
2022-11-04T03:38:29.789Z,950.31
2022-11-04T03:44:01.440Z,950.31
2022-11-04T03:49:32.947Z,950.29
2022-11-04T03:55:04.511Z,950.29
2022-11-04T04:00:36.291Z,950.29
2022-11-04T04:06:07.858Z,950.29
2022-11-04T04:11:39.116Z,950.23
2022-11-04T04:22:42.045Z,950.10
2022-11-04T04:28:19.328Z,950.12
2022-11-04T04:33:50.616Z,950.16
2022-11-04T04:39:22.150Z,950.14
2022-11-04T04:44:53.935Z,950.16
2022-11-04T04:50:25.563Z,950.14
2022-11-04T04:55:56.807Z,950.12
2022-11-04T05:01:28.373Z,950.19
2022-11-04T05:06:59.442Z,950.25
2022-11-04T05:12:30.971Z,950.29
2022-11-04T05:18:02.580Z,950.31
2022-11-04T05:23:34.082Z,950.35
2022-11-04T05:29:05.625Z,950.39
2022-11-04T05:34:36.908Z,950.39
2022-11-04T05:40:08.582Z,950.33
2022-11-04T05:45:39.856Z,950.37
2022-11-04T05:51:11.152Z,950.39
2022-11-04T05:56:42.511Z,950.43
2022-11-04T06:02:14.263Z,950.45
2022-11-04T06:07:45.569Z,950.51
2022-11-04T06:13:16.829Z,950.57
2022-11-04T06:18:48.118Z,950.61
2022-11-04T06:24:21.223Z,950.63
2022-11-04T06:29:52.657Z,950.74
2022-11-04T06:35:30.055Z,950.80
2022-11-04T06:41:01.735Z,950.76
2022-11-04T06:46:33.165Z,950.76
2022-11-04T06:52:04.424Z,950.80
2022-11-04T06:57:37.284Z,950.84
2022-11-04T07:03:09.215Z,950.84
2022-11-04T07:14:09.796Z,950.68
2022-11-04T07:19:41.454Z,950.66
2022-11-04T07:25:13.236Z,950.66
2022-11-04T07:30:44.923Z,950.70
2022-11-04T07:36:16.261Z,950.80
2022-11-04T07:41:48.192Z,950.94
2022-11-04T07:52:48.780Z,951.06
2022-11-04T08:03:49.913Z,951.13
2022-11-04T08:14:50.390Z,951.23
2022-11-04T08:20:21.995Z,951.19
2022-11-04T08:25:53.601Z,951.13
2022-11-04T08:36:54.420Z,950.98
2022-11-04T08:42:26.235Z,950.86
2022-11-04T08:48:01.388Z,950.84
2022-11-04T09:09:57.966Z,950.63
2022-11-04T09:15:29.631Z,950.64
2022-11-04T09:21:00.915Z,950.59
2022-11-04T09:26:32.852Z,950.53
2022-11-04T09:32:04.693Z,950.53
2022-11-04T09:43:05.332Z,950.49
2022-11-04T09:48:37.251Z,950.51
2022-11-04T09:54:08.920Z,950.51
2022-11-04T09:59:40.840Z,950.55
2022-11-04T10:10:42.219Z,950.55
2022-11-04T10:16:13.784Z,950.49
2022-11-04T10:21:45.785Z,950.43
2022-11-04T10:27:17.203Z,950.41
2022-11-04T10:32:48.539Z,950.45
2022-11-04T10:43:49.471Z,950.41
2022-11-04T10:54:50.820Z,950.23
2022-11-04T11:00:22.576Z,950.16
2022-11-04T11:05:54.177Z,950.17
2022-11-04T11:11:26.128Z,950.16
2022-11-04T11:22:27.556Z,950.16
2022-11-04T11:33:28.780Z,950.19
2022-11-04T11:39:00.644Z,950.23
2022-11-04T11:44:32.422Z,950.25
2022-11-04T11:50:04.282Z,950.29
2022-11-04T11:52:16.613Z,950.41
2022-11-04T12:03:20.810Z,950.39
2022-11-04T12:14:23.214Z,950.31
2022-11-04T12:19:54.539Z,950.29
2022-11-04T12:25:25.926Z,950.33
2022-11-04T12:30:57.953Z,950.29
2022-11-04T12:36:29.614Z,950.27
2022-11-04T12:47:33.267Z,950.12
2022-11-04T12:53:05.190Z,950.16
2022-11-04T12:58:37.051Z,950.29
2022-11-04T13:04:09.239Z,950.45
2022-11-04T13:09:41.026Z,950.59
2022-11-04T13:15:12.697Z,950.64
2022-11-04T13:20:44.590Z,950.68
2022-11-04T13:26:16.390Z,950.70
2022-11-04T13:31:48.044Z,950.72
2022-11-04T13:37:19.847Z,950.74
2022-11-04T13:42:51.792Z,950.76
2022-11-04T13:48:23.238Z,950.78
2022-11-04T13:53:54.914Z,950.80
2022-11-04T13:59:26.837Z,950.80
2022-11-04T14:04:58.301Z,950.80
2022-11-04T14:10:29.842Z,950.80
2022-11-04T14:16:01.585Z,950.82
2022-11-04T14:21:33.364Z,950.84
2022-11-04T14:27:05.041Z,950.84
2022-11-04T14:32:36.825Z,950.88
2022-11-04T14:38:08.535Z,950.88
2022-11-04T14:43:40.280Z,950.86
2022-11-04T14:49:12.138Z,950.82
2022-11-04T14:54:43.741Z,950.82
2022-11-04T15:00:15.513Z,950.80
2022-11-04T15:11:18.561Z,950.84
2022-11-04T15:16:49.860Z,950.88
2022-11-04T15:27:50.792Z,950.94
2022-11-04T15:33:22.577Z,950.96
2022-11-04T15:39:00.284Z,951.00
2022-11-04T15:44:31.975Z,951.00
2022-11-04T15:50:03.836Z,951.02
2022-11-04T15:55:41.448Z,951.06
2022-11-04T16:03:25.790Z,951.17
2022-11-04T16:08:57.512Z,951.15
2022-11-04T16:14:28.908Z,951.13
2022-11-04T16:20:00.819Z,951.13
2022-11-04T16:25:32.713Z,951.15
2022-11-04T16:31:04.560Z,951.17
2022-11-04T16:36:36.329Z,951.25
2022-11-04T16:42:07.956Z,951.25
2022-11-04T16:47:40.023Z,951.29
2022-11-04T16:53:17.283Z,951.31
2022-11-04T16:58:49.080Z,951.43
2022-11-04T17:04:20.942Z,951.51
2022-11-04T17:09:53.591Z,951.63
2022-11-04T17:15:25.447Z,951.64
2022-11-04T17:20:57.223Z,951.68
2022-11-04T17:26:29.159Z,951.72
2022-11-04T17:32:00.864Z,951.78
2022-11-04T17:37:32.744Z,951.86
2022-11-04T17:43:10.310Z,951.88
2022-11-04T17:54:05.620Z,952.00
2022-11-04T18:07:27.559Z,952.23
2022-11-04T18:12:59.350Z,952.25
2022-11-04T18:18:31.162Z,952.29
2022-11-04T18:24:02.833Z,952.29
2022-11-04T18:29:34.216Z,952.31
2022-11-04T18:35:06.196Z,952.35
2022-11-04T18:40:37.928Z,952.39
2022-11-04T18:46:09.727Z,952.49
2022-11-04T18:51:41.614Z,952.55
2022-11-04T18:57:13.273Z,952.66
2022-11-04T19:02:46.211Z,952.74
2022-11-04T19:08:18.015Z,952.74
2022-11-04T19:13:55.108Z,952.76
2022-11-04T19:19:26.675Z,952.76
2022-11-04T19:24:58.372Z,952.78
2022-11-04T19:30:31.318Z,952.84
2022-11-04T19:36:02.975Z,952.92
2022-11-04T19:41:34.510Z,953.06
2022-11-04T19:47:06.372Z,953.13
2022-11-04T19:52:38.354Z,953.25
2022-11-04T19:58:10.480Z,953.33
2022-11-04T20:03:41.883Z,953.45
2022-11-04T20:14:45.654Z,953.53
2022-11-04T20:20:17.270Z,953.59
2022-11-04T20:25:49.364Z,953.66
2022-11-04T20:31:21.148Z,953.72
2022-11-04T20:36:52.817Z,953.84
2022-11-04T20:42:24.746Z,953.88
2022-11-04T20:47:56.175Z,954.02
2022-11-04T20:53:28.250Z,954.10
2022-11-04T20:59:00.213Z,954.14
2022-11-04T21:10:01.371Z,954.27
2022-11-04T21:15:32.810Z,954.31
2022-11-04T21:21:04.924Z,954.33
2022-11-04T21:26:37.154Z,954.39
2022-11-04T21:32:08.743Z,954.47
2022-11-04T21:48:44.235Z,954.59
2022-11-04T21:54:17.802Z,954.63
2022-11-04T22:05:19.093Z,954.61
2022-11-04T22:10:51.308Z,954.59
2022-11-04T22:16:23.251Z,954.63
2022-11-04T22:21:54.876Z,954.65
2022-11-04T22:32:58.389Z,954.68
2022-11-04T22:38:29.911Z,954.68
2022-11-04T22:44:01.807Z,954.72
2022-11-04T22:49:33.349Z,954.74
2022-11-04T22:55:05.413Z,954.78
2022-11-04T23:00:36.979Z,954.82
2022-11-04T23:06:08.911Z,954.86
2022-11-04T23:11:41.150Z,954.92
2022-11-04T23:17:12.896Z,954.96
2022-11-04T23:22:44.853Z,954.98
2022-11-04T23:28:16.548Z,955.02
2022-11-04T23:33:48.290Z,955.06
2022-11-04T23:39:20.217Z,955.10
2022-11-04T23:44:51.948Z,955.14
2022-11-04T23:55:58.020Z,955.25
